Metar z pełnej godziny Komunikat METAR ze strony awiacja.imgw.pl Metar G00 EPSY METAR EPSY 241900Z 02001KT CAVOK 16/10 Q1011=